Time;durP1;ratioP1;P1;durP2;ratioP2;P2;SDS_P1;SDS_P2;PMS_P1;PMS_P2;Temp;Humidity;BMP_temperature;BMP_pressure;BME280_temperature;BME280_humidity;BME280_pressure;Samples;Min_cycle;Max_cycle;Signal;HPM_P1;HPM_P2
2022/05/22 00:01:02;;;;;;;;;;;22.40;44.20;;;;;;5123731;28;19927;-57
2022/05/22 00:03:28;;;;;;;;;;;22.30;44.40;;;;;;5124616;28;20350;-55
2022/05/22 00:05:54;;;;;;;;;;;22.30;44.50;;;;;;5120913;28;19988;-57
2022/05/22 00:08:20;;;;;;;;;;;22.20;44.70;;;;;;5123976;28;19927;-58
2022/05/22 00:10:46;;;;;;;;;;;22.20;44.80;;;;;;5120263;28;19923;-58
2022/05/22 00:13:12;;;;;;;;;;;22.20;44.80;;;;;;5120838;28;19931;-57
2022/05/22 00:16:36;;;;;;;;;;;22.30;44.60;;;;;;5126311;28;20390;-56
2022/05/22 00:18:23;;;;;;;;;;;22.30;44.50;;;;;;5120928;28;19927;-58
2022/05/22 00:20:49;;;;;;;;;;;22.30;44.50;;;;;;5120420;27;20246;-57
2022/05/22 00:23:15;;;;;;;;;;;22.30;44.70;;;;;;5125744;28;19927;-57
2022/05/22 00:25:40;;;;;;;;;;;22.20;44.80;;;;;;5118602;28;19928;-58
2022/05/22 00:28:06;;;;;;;;;;;22.20;44.70;;;;;;5122515;28;20416;-58
2022/05/22 00:30:32;;;;;;;;;;;22.10;44.80;;;;;;5122728;28;19923;-58
2022/05/22 00:33:00;;;;;;;;;;;22.20;44.70;;;;;;5120739;28;19927;-59
2022/05/22 00:35:26;;;;;;;;;;;22.20;44.40;;;;;;5126193;28;20022;-56
2022/05/22 00:37:52;;;;;;;;;;;22.20;44.20;;;;;;5120678;28;19930;-58
2022/05/22 00:40:18;;;;;;;;;;;22.20;44.20;;;;;;5120716;28;19968;-58
2022/05/22 00:42:46;;;;;;;;;;;22.30;43.90;;;;;;5107598;28;20294;-58
2022/05/22 00:45:12;;;;;;;;;;;22.30;43.60;;;;;;5118281;28;20371;-59
2022/05/22 00:47:37;;;;;;;;;;;22.30;43.70;;;;;;5119562;28;19938;-56
2022/05/22 00:50:03;;;;;;;;;;;22.30;43.70;;;;;;5125302;28;19923;-58
2022/05/22 00:52:33;;;;;;;;;;;22.20;43.70;;;;;;5102032;28;19990;-58
2022/05/22 00:55:05;;;;;;;;;;;22.10;43.80;;;;;;5107894;28;19968;-57
2022/05/22 00:57:39;;;;;;;;;;;21.20;45.70;;;;;;5102183;28;19923;-57
2022/05/22 01:00:09;;;;;;;;;;;21.10;46.40;;;;;;5120250;28;20387;-58
2022/05/22 01:05:19;;;;;;;;;;;21.30;46.00;;;;;;5120720;28;19931;-57
2022/05/22 01:07:45;;;;;;;;;;;21.40;45.90;;;;;;5099831;28;19977;-58
2022/05/22 01:10:11;;;;;;;;;;;21.40;45.80;;;;;;5125671;28;19930;-58
2022/05/22 01:12:37;;;;;;;;;;;21.40;45.80;;;;;;5101079;28;19927;-59
2022/05/22 01:15:03;;;;;;;;;;;21.40;45.70;;;;;;5101992;28;19936;-58
2022/05/22 01:17:29;;;;;;;;;;;21.40;45.70;;;;;;5125858;28;19967;-58
2022/05/22 01:19:59;;;;;;;;;;;21.40;45.60;;;;;;5119473;28;19942;-59
2022/05/22 01:22:26;;;;;;;;;;;21.40;45.70;;;;;;5118723;28;19930;-57
2022/05/22 01:24:53;;;;;;;;;;;21.50;45.40;;;;;;5124990;28;19934;-58
2022/05/22 01:27:18;;;;;;;;;;;21.50;45.50;;;;;;5120299;28;20336;-57
2022/05/22 01:29:44;;;;;;;;;;;21.40;45.50;;;;;;5125439;28;19974;-58
2022/05/22 01:32:10;;;;;;;;;;;21.40;45.40;;;;;;5120726;27;19957;-57
2022/05/22 01:34:36;;;;;;;;;;;21.40;45.50;;;;;;5122819;28;19927;-58
2022/05/22 01:37:01;;;;;;;;;;;21.40;45.40;;;;;;5129310;28;19930;-58
2022/05/22 01:39:27;;;;;;;;;;;21.40;45.50;;;;;;5121923;28;19976;-55
2022/05/22 01:41:53;;;;;;;;;;;21.50;45.40;;;;;;5122758;28;19927;-54
2022/05/22 01:44:19;;;;;;;;;;;21.40;45.40;;;;;;5128504;28;19929;-57
2022/05/22 01:46:45;;;;;;;;;;;21.40;45.60;;;;;;5123705;28;19923;-59
2022/05/22 01:49:10;;;;;;;;;;;21.40;45.60;;;;;;5128740;28;19923;-55
2022/05/22 01:51:38;;;;;;;;;;;21.40;45.50;;;;;;5124019;28;20014;-56
2022/05/22 01:54:04;;;;;;;;;;;21.40;45.50;;;;;;5123882;28;20327;-54
2022/05/22 01:56:30;;;;;;;;;;;21.30;45.50;;;;;;5128011;28;19929;-56
2022/05/22 01:58:56;;;;;;;;;;;21.50;45.30;;;;;;5121890;28;20018;-57
2022/05/22 02:01:22;;;;;;;;;;;21.40;45.30;;;;;;5123514;28;19923;-58
2022/05/22 02:03:48;;;;;;;;;;;21.50;45.20;;;;;;5128511;28;19923;-55
2022/05/22 02:06:13;;;;;;;;;;;21.30;45.30;;;;;;5123737;28;19928;-54
2022/05/22 02:08:39;;;;;;;;;;;21.40;45.30;;;;;;5128643;28;19923;-56
2022/05/22 02:11:05;;;;;;;;;;;21.30;45.30;;;;;;5124062;28;20371;-58
2022/05/22 02:13:32;;;;;;;;;;;21.30;45.30;;;;;;5123586;28;19953;-56
2022/05/22 02:15:58;;;;;;;;;;;21.30;45.20;;;;;;5126934;28;20332;-56
2022/05/22 02:18:23;;;;;;;;;;;21.50;45.10;;;;;;5122527;28;19931;-58
2022/05/22 02:20:49;;;;;;;;;;;21.30;45.40;;;;;;5123148;28;20146;-53
2022/05/22 02:23:16;;;;;;;;;;;21.40;45.20;;;;;;5128295;28;19975;-55
2022/05/22 02:25:42;;;;;;;;;;;21.40;45.30;;;;;;5123422;28;20018;-56
2022/05/22 02:28:08;;;;;;;;;;;21.30;45.50;;;;;;5107289;28;20006;-54
2022/05/22 02:30:35;;;;;;;;;;;21.30;45.50;;;;;;5108042;28;19957;-57
2022/05/22 02:33:01;;;;;;;;;;;21.30;45.50;;;;;;5122832;28;19927;-56
2022/05/22 02:35:27;;;;;;;;;;;21.40;45.40;;;;;;5125976;28;19980;-55
2022/05/22 02:37:53;;;;;;;;;;;21.30;45.50;;;;;;5123033;28;19924;-55
2022/05/22 02:40:20;;;;;;;;;;;21.40;45.30;;;;;;5123442;28;19923;-58
2022/05/22 02:42:46;;;;;;;;;;;21.40;45.40;;;;;;5128153;28;20389;-54
2022/05/22 02:45:12;;;;;;;;;;;21.40;45.50;;;;;;5104738;28;20276;-55
2022/05/22 02:47:38;;;;;;;;;;;21.30;45.70;;;;;;5123604;28;20022;-57
2022/05/22 02:50:05;;;;;;;;;;;21.30;45.70;;;;;;5127999;28;19931;-56
2022/05/22 02:52:30;;;;;;;;;;;21.30;45.70;;;;;;5121570;28;19927;-54
2022/05/22 02:54:56;;;;;;;;;;;21.30;45.60;;;;;;5126864;28;19971;-54
2022/05/22 02:57:22;;;;;;;;;;;20.90;45.10;;;;;;5122927;28;19927;-53
2022/05/22 02:59:48;;;;;;;;;;;20.70;44.70;;;;;;5123196;28;20444;-56
2022/05/22 03:02:14;;;;;;;;;;;21.20;47.40;;;;;;5109366;28;19933;-57
2022/05/22 03:04:40;;;;;;;;;;;21.80;45.70;;;;;;5118164;28;20349;-57
2022/05/22 03:07:06;;;;;;;;;;;21.70;45.40;;;;;;5122118;28;19931;-58
2022/05/22 03:09:32;;;;;;;;;;;21.60;45.20;;;;;;5108685;28;20379;-57
2022/05/22 03:11:57;;;;;;;;;;;21.60;45.40;;;;;;5119526;28;20239;-59
2022/05/22 03:14:23;;;;;;;;;;;21.50;45.20;;;;;;5108116;28;19931;-58
2022/05/22 03:16:49;;;;;;;;;;;21.70;44.80;;;;;;5121614;28;20514;-59
2022/05/22 03:19:15;;;;;;;;;;;21.70;44.70;;;;;;5121922;28;19924;-57
2022/05/22 03:21:41;;;;;;;;;;;21.70;44.60;;;;;;5127266;28;20362;-58
2022/05/22 03:24:07;;;;;;;;;;;21.70;44.70;;;;;;5121954;28;19956;-56
2022/05/22 03:26:33;;;;;;;;;;;21.70;44.50;;;;;;5121851;28;20211;-57
2022/05/22 03:28:59;;;;;;;;;;;21.80;44.50;;;;;;5107154;28;19931;-56
2022/05/22 03:31:25;;;;;;;;;;;21.70;44.50;;;;;;5119789;28;19931;-57
2022/05/22 03:33:51;;;;;;;;;;;21.70;44.60;;;;;;5125703;28;19923;-56
2022/05/22 03:36:16;;;;;;;;;;;21.60;44.70;;;;;;5122633;28;19927;-59
2022/05/22 03:38:42;;;;;;;;;;;21.60;44.80;;;;;;5121368;28;20400;-58
2022/05/22 03:41:08;;;;;;;;;;;21.60;44.90;;;;;;5108111;28;20132;-57
2022/05/22 03:43:34;;;;;;;;;;;21.70;44.60;;;;;;5121570;28;19945;-58
2022/05/22 03:46:00;;;;;;;;;;;21.70;44.50;;;;;;5121409;28;20390;-56
2022/05/22 03:48:25;;;;;;;;;;;21.60;44.60;;;;;;5124242;28;20286;-59
2022/05/22 03:50:51;;;;;;;;;;;21.60;44.60;;;;;;5120498;28;19931;-59
2022/05/22 03:53:17;;;;;;;;;;;21.70;44.40;;;;;;5123747;28;19979;-58
2022/05/22 03:55:43;;;;;;;;;;;21.70;44.50;;;;;;5105854;27;19997;-57
2022/05/22 03:58:09;;;;;;;;;;;21.60;44.50;;;;;;5120979;28;19923;-58
2022/05/22 04:00:35;;;;;;;;;;;21.50;44.70;;;;;;5126973;28;20294;-59
2022/05/22 04:03:01;;;;;;;;;;;21.50;44.60;;;;;;5121410;28;19927;-57
2022/05/22 04:05:26;;;;;;;;;;;21.50;44.60;;;;;;5120166;28;19934;-59
2022/05/22 04:07:52;;;;;;;;;;;21.50;44.40;;;;;;5124699;28;19931;-58
2022/05/22 04:10:18;;;;;;;;;;;21.40;44.30;;;;;;5120575;28;20310;-57
2022/05/22 04:12:44;;;;;;;;;;;21.60;44.20;;;;;;5121122;28;19952;-56
2022/05/22 04:15:11;;;;;;;;;;;21.50;44.20;;;;;;5126493;28;20297;-58
2022/05/22 04:17:37;;;;;;;;;;;21.50;44.50;;;;;;5120916;28;19929;-59
2022/05/22 04:20:03;;;;;;;;;;;21.50;44.70;;;;;;5126532;28;19923;-59
2022/05/22 04:22:28;;;;;;;;;;;21.60;44.40;;;;;;5121141;28;20353;-59
2022/05/22 04:25:12;;;;;;;;;;;21.50;44.50;;;;;;5118164;28;19934;-56
2022/05/22 04:27:39;;;;;;;;;;;21.50;44.50;;;;;;5125293;28;19924;-57
2022/05/22 04:30:07;;;;;;;;;;;21.60;44.30;;;;;;5120321;28;19931;-58
2022/05/22 04:32:32;;;;;;;;;;;21.50;44.40;;;;;;5120691;28;19923;-56
2022/05/22 04:34:58;;;;;;;;;;;21.60;44.40;;;;;;5126021;28;19938;-58
2022/05/22 04:37:24;;;;;;;;;;;21.60;44.50;;;;;;5120649;28;19928;-58
2022/05/22 04:39:50;;;;;;;;;;;21.70;44.50;;;;;;5120809;28;20022;-57
2022/05/22 04:42:15;;;;;;;;;;;21.60;44.60;;;;;;5124769;28;20263;-58
2022/05/22 04:44:41;;;;;;;;;;;21.70;44.50;;;;;;5099443;28;19924;-58
2022/05/22 04:47:07;;;;;;;;;;;21.70;44.50;;;;;;5125717;28;19928;-57
2022/05/22 04:49:33;;;;;;;;;;;21.60;44.50;;;;;;5120189;28;19934;-55
2022/05/22 04:51:58;;;;;;;;;;;21.60;44.40;;;;;;5120461;28;19935;-59
2022/05/22 04:54:27;;;;;;;;;;;21.70;44.30;;;;;;5125987;28;20416;-58
2022/05/22 04:56:53;;;;;;;;;;;21.80;44.20;;;;;;5120673;28;19924;-58
2022/05/22 04:59:19;;;;;;;;;;;21.70;44.40;;;;;;5120443;28;20103;-59
2022/05/22 05:01:45;;;;;;;;;;;21.80;44.40;;;;;;5104782;28;19934;-58
2022/05/22 05:04:13;;;;;;;;;;;21.70;44.70;;;;;;5119436;28;19928;-58
2022/05/22 05:06:39;;;;;;;;;;;21.70;44.70;;;;;;5107349;28;19973;-58
2022/05/22 05:09:04;;;;;;;;;;;21.80;44.70;;;;;;5123187;27;19927;-58
2022/05/22 05:11:30;;;;;;;;;;;21.80;44.90;;;;;;5123595;28;20185;-59
2022/05/22 05:13:56;;;;;;;;;;;21.80;45.00;;;;;;5111208;28;20036;-58
2022/05/22 05:16:22;;;;;;;;;;;21.80;45.40;;;;;;5123943;28;20363;-58
2022/05/22 05:18:48;;;;;;;;;;;21.80;45.50;;;;;;5122700;28;20334;-56
2022/05/22 05:21:14;;;;;;;;;;;21.80;45.50;;;;;;5109168;28;19928;-57
2022/05/22 05:23:40;;;;;;;;;;;21.80;45.50;;;;;;5123280;28;20413;-59
2022/05/22 05:26:06;;;;;;;;;;;21.80;45.50;;;;;;5109887;28;20005;-54
2022/05/22 05:28:31;;;;;;;;;;;21.80;45.40;;;;;;5124639;28;19929;-58
2022/05/22 05:30:57;;;;;;;;;;;21.80;45.20;;;;;;5123586;28;19924;-57
2022/05/22 05:33:23;;;;;;;;;;;21.80;45.30;;;;;;5128922;28;20361;-59
2022/05/22 05:35:49;;;;;;;;;;;22.00;45.10;;;;;;5087923;28;19940;-57
2022/05/22 05:38:15;;;;;;;;;;;22.00;45.10;;;;;;5121305;28;19941;-57
2022/05/22 05:40:40;;;;;;;;;;;22.00;45.30;;;;;;5107455;28;19970;-58
2022/05/22 05:43:06;;;;;;;;;;;22.00;45.20;;;;;;5122770;28;19934;-54
2022/05/22 05:45:32;;;;;;;;;;;22.00;45.20;;;;;;5126032;28;19923;-57
2022/05/22 05:47:58;;;;;;;;;;;22.00;45.00;;;;;;5126395;28;20010;-58
2022/05/22 05:50:26;;;;;;;;;;;22.00;44.90;;;;;;5123564;28;19974;-58
2022/05/22 05:52:55;;;;;;;;;;;22.20;44.60;;;;;;5128720;28;19935;-59
2022/05/22 05:55:21;;;;;;;;;;;22.20;44.40;;;;;;5122428;28;19938;-57
2022/05/22 05:57:47;;;;;;;;;;;22.30;44.40;;;;;;5121044;28;20373;-57
2022/05/22 06:00:14;;;;;;;;;;;22.30;44.20;;;;;;5109636;28;20016;-59
2022/05/22 06:02:40;;;;;;;;;;;22.50;43.80;;;;;;5122931;28;19960;-57
2022/05/22 06:05:05;;;;;;;;;;;21.40;45.70;;;;;;5123008;28;19923;-57
2022/05/22 06:07:31;;;;;;;;;;;21.10;46.20;;;;;;5128762;28;19930;-56
2022/05/22 06:09:58;;;;;;;;;;;21.30;46.90;;;;;;5104744;28;19957;-56
2022/05/22 06:12:24;;;;;;;;;;;21.40;46.50;;;;;;5128605;28;19924;-57
2022/05/22 06:14:50;;;;;;;;;;;21.50;46.20;;;;;;5120839;28;19930;-56
2022/05/22 06:17:16;;;;;;;;;;;21.60;45.80;;;;;;5121615;28;20185;-58
2022/05/22 06:19:54;;;;;;;;;;;21.70;45.50;;;;;;5108557;28;19973;-57
2022/05/22 06:22:19;;;;;;;;;;;21.80;45.20;;;;;;5122724;28;19983;-58
2022/05/22 06:24:45;;;;;;;;;;;21.80;45.00;;;;;;5123004;28;20375;-59
2022/05/22 06:27:11;;;;;;;;;;;21.80;44.90;;;;;;5128297;28;19931;-58
2022/05/22 06:29:37;;;;;;;;;;;21.80;45.00;;;;;;5104435;28;20022;-58
2022/05/22 06:32:03;;;;;;;;;;;21.70;45.30;;;;;;5123611;28;20030;-57
2022/05/22 06:34:31;;;;;;;;;;;21.70;45.40;;;;;;5106752;28;19923;-58
2022/05/22 06:36:59;;;;;;;;;;;21.60;45.40;;;;;;5122355;28;19923;-57
2022/05/22 06:42:16;;;;;;;;;;;21.70;45.00;;;;;;5125786;28;19930;-57
2022/05/22 06:44:42;;;;;;;;;;;21.70;44.80;;;;;;5122569;28;19923;-58
2022/05/22 06:47:08;;;;;;;;;;;21.80;44.50;;;;;;5109850;28;20453;-58
2022/05/22 06:49:34;;;;;;;;;;;21.80;44.60;;;;;;5122813;28;19923;-58
2022/05/22 06:51:59;;;;;;;;;;;21.80;44.60;;;;;;5102073;28;19924;-58
2022/05/22 06:54:25;;;;;;;;;;;21.80;44.90;;;;;;5126851;28;19975;-58
2022/05/22 06:56:51;;;;;;;;;;;21.80;44.80;;;;;;5102863;28;19924;-57
2022/05/22 06:59:17;;;;;;;;;;;21.80;44.70;;;;;;5122863;28;19924;-58
2022/05/22 07:01:43;;;;;;;;;;;21.80;44.40;;;;;;5127774;28;19938;-59
2022/05/22 07:04:08;;;;;;;;;;;21.90;44.20;;;;;;5122604;28;19976;-57
2022/05/22 07:06:34;;;;;;;;;;;21.80;44.10;;;;;;5127620;28;19923;-59
2022/05/22 07:09:00;;;;;;;;;;;21.90;44.00;;;;;;5121246;28;20385;-58
2022/05/22 07:11:38;;;;;;;;;;;22.00;43.80;;;;;;5120674;28;19942;-58
2022/05/22 07:14:04;;;;;;;;;;;21.90;44.00;;;;;;5127176;28;20359;-58
2022/05/22 07:16:31;;;;;;;;;;;21.80;44.20;;;;;;5103730;28;20524;-56
2022/05/22 07:18:57;;;;;;;;;;;21.80;44.20;;;;;;5122565;28;19923;-58
2022/05/22 07:21:24;;;;;;;;;;;21.90;44.10;;;;;;5127393;28;20367;-58
2022/05/22 07:23:50;;;;;;;;;;;21.80;44.40;;;;;;5122263;28;19927;-58
2022/05/22 07:26:18;;;;;;;;;;;22.00;44.20;;;;;;5123030;28;20467;-59
2022/05/22 07:28:44;;;;;;;;;;;22.00;44.10;;;;;;5125022;28;20625;-59
2022/05/22 07:31:16;;;;;;;;;;;22.00;44.20;;;;;;5121505;27;19927;-58
2022/05/22 07:33:42;;;;;;;;;;;22.00;44.10;;;;;;5127318;28;19929;-57
2022/05/22 07:36:08;;;;;;;;;;;22.00;44.60;;;;;;5104281;28;20013;-56
2022/05/22 07:38:34;;;;;;;;;;;21.90;44.80;;;;;;5122032;28;19928;-59
2022/05/22 07:41:00;;;;;;;;;;;22.00;44.90;;;;;;5127152;28;19935;-58
2022/05/22 07:43:25;;;;;;;;;;;22.00;45.00;;;;;;5121956;28;19931;-56
2022/05/22 07:45:51;;;;;;;;;;;22.00;44.90;;;;;;5121154;28;20023;-58
2022/05/22 07:48:17;;;;;;;;;;;22.10;44.60;;;;;;5125223;28;19931;-59
2022/05/22 07:50:43;;;;;;;;;;;22.20;44.50;;;;;;5121234;28;19954;-57
2022/05/22 07:53:09;;;;;;;;;;;21.30;46.30;;;;;;5127032;28;19923;-58
2022/05/22 07:55:35;;;;;;;;;;;19.90;49.10;;;;;;5122697;28;20446;-57
2022/05/22 07:58:01;;;;;;;;;;;19.90;50.90;;;;;;5122109;28;20087;-55
2022/05/22 08:00:27;;;;;;;;;;;20.80;48.70;;;;;;5127017;28;20394;-56
2022/05/22 08:02:52;;;;;;;;;;;21.10;47.40;;;;;;5104098;28;19950;-57
2022/05/22 08:05:18;;;;;;;;;;;21.00;45.80;;;;;;5119836;28;20038;-56
2022/05/22 08:07:44;;;;;;;;;;;20.90;46.90;;;;;;5125734;28;19923;-56
2022/05/22 08:10:10;;;;;;;;;;;21.80;46.60;;;;;;5121377;28;19979;-57
2022/05/22 08:12:37;;;;;;;;;;;22.00;45.10;;;;;;5124442;28;20324;-57
2022/05/22 08:15:03;;;;;;;;;;;22.30;44.00;;;;;;5123636;28;19924;-59
2022/05/22 08:17:32;;;;;;;;;;;22.60;43.30;;;;;;5103084;28;19931;-58
2022/05/22 08:20:02;;;;;;;;;;;22.70;43.10;;;;;;5126647;28;19963;-46
2022/05/22 08:22:27;;;;;;;;;;;21.60;45.10;;;;;;5119872;28;19958;-50
2022/05/22 08:24:53;;;;;;;;;;;21.60;45.20;;;;;;5118647;28;19927;-49
2022/05/22 08:27:19;;;;;;;;;;;21.80;45.30;;;;;;5125239;28;20014;-46
2022/05/22 08:29:45;;;;;;;;;;;22.00;44.80;;;;;;5120522;28;19931;-48
2022/05/22 08:32:11;;;;;;;;;;;22.20;44.50;;;;;;5102590;28;20108;-47
2022/05/22 08:34:36;;;;;;;;;;;22.10;44.60;;;;;;5126102;28;19935;-47
2022/05/22 08:37:02;;;;;;;;;;;22.20;44.50;;;;;;5120503;28;20684;-45
2022/05/22 08:39:28;;;;;;;;;;;22.20;44.50;;;;;;5126676;28;19935;-53
2022/05/22 08:41:54;;;;;;;;;;;22.00;44.40;;;;;;5118821;27;19927;-48
2022/05/22 08:44:25;;;;;;;;;;;20.50;47.60;;;;;;5067508;28;20096;-45
2022/05/22 08:46:53;;;;;;;;;;;19.80;49.10;;;;;;5107283;28;19964;-46
2022/05/22 08:49:22;;;;;;;;;;;20.70;48.50;;;;;;5102085;28;19971;-44
2022/05/22 08:51:54;;;;;;;;;;;21.30;46.70;;;;;;5120327;28;20000;-44
2022/05/22 08:54:24;;;;;;;;;;;21.70;45.60;;;;;;5125881;28;20385;-43
2022/05/22 08:59:36;;;;;;;;;;;22.00;44.50;;;;;;5119168;28;20201;-44
2022/05/22 09:02:11;;;;;;;;;;;22.10;44.50;;;;;;5124006;28;20318;-43
2022/05/22 09:04:41;;;;;;;;;;;22.10;44.60;;;;;;5119761;28;19990;-44
2022/05/22 09:07:12;;;;;;;;;;;22.10;44.60;;;;;;5120023;28;20475;-43
2022/05/22 09:09:39;;;;;;;;;;;22.10;44.40;;;;;;5106638;28;19930;-43
2022/05/22 09:12:23;;;;;;;;;;;22.20;44.40;;;;;;5120191;28;19923;-43
2022/05/22 09:14:55;;;;;;;;;;;22.20;44.20;;;;;;5121971;28;20599;-50
2022/05/22 09:17:22;;;;;;;;;;;22.20;44.00;;;;;;5125856;28;19927;-51
2022/05/22 09:19:53;;;;;;;;;;;20.70;46.60;;;;;;5120809;28;19923;-48
2022/05/22 09:22:38;;;;;;;;;;;20.00;48.20;;;;;;5102228;28;20272;-52
2022/05/22 09:25:36;;;;;;;;;;;21.00;46.60;;;;;;5125429;28;19924;-44
2022/05/22 09:28:14;;;;;;;;;;;21.70;45.00;;;;;;5063402;28;19957;-47
2022/05/22 09:30:47;;;;;;;;;;;22.00;44.20;;;;;;5101063;28;20010;-45
2022/05/22 09:33:32;;;;;;;;;;;22.00;44.20;;;;;;5125499;28;19929;-44
2022/05/22 09:35:57;;;;;;;;;;;22.10;44.20;;;;;;5118851;28;19931;-46
2022/05/22 09:38:38;;;;;;;;;;;22.20;44.00;;;;;;5098445;28;19989;-45
2022/05/22 09:41:16;;;;;;;;;;;22.10;44.10;;;;;;5124920;28;20298;-47
2022/05/22 09:43:50;;;;;;;;;;;22.20;43.90;;;;;;5100695;28;19934;-46
2022/05/22 09:46:18;;;;;;;;;;;22.30;43.80;;;;;;5119791;28;20367;-45
2022/05/22 09:49:04;;;;;;;;;;;22.30;43.70;;;;;;5126187;28;20375;-52
2022/05/22 09:51:38;;;;;;;;;;;21.50;44.50;;;;;;5121593;28;20017;-46
2022/05/22 09:54:08;;;;;;;;;;;20.00;47.70;;;;;;5099078;28;20379;-48
2022/05/22 09:56:44;;;;;;;;;;;20.20;48.30;;;;;;5108342;28;19923;-47
2022/05/22 09:59:20;;;;;;;;;;;21.30;45.90;;;;;;5104322;28;19923;-45
2022/05/22 10:01:47;;;;;;;;;;;21.80;44.80;;;;;;5122998;28;19927;-46
2022/05/22 10:04:46;;;;;;;;;;;21.90;44.40;;;;;;5109425;28;20011;-45
2022/05/22 10:07:18;;;;;;;;;;;22.00;44.20;;;;;;5103877;28;19923;-46
2022/05/22 10:09:57;;;;;;;;;;;22.00;44.10;;;;;;5122868;28;20332;-46
2022/05/22 10:12:33;;;;;;;;;;;22.20;43.80;;;;;;5127951;28;19924;-49
2022/05/22 10:15:16;;;;;;;;;;;22.20;43.70;;;;;;5122581;28;20010;-53
2022/05/22 10:17:57;;;;;;;;;;;22.20;43.50;;;;;;5106412;28;20431;-47
2022/05/22 10:20:31;;;;;;;;;;;20.20;48.00;;;;;;5125651;28;20043;-52
2022/05/22 10:22:57;;;;;;;;;;;21.00;44.90;;;;;;5109845;28;20026;-45
2022/05/22 10:25:41;;;;;;;;;;;21.30;43.20;;;;;;5104389;28;19943;-46
2022/05/22 10:28:09;;;;;;;;;;;21.50;44.30;;;;;;5125380;28;19929;-50
2022/05/22 10:30:42;;;;;;;;;;;21.80;44.70;;;;;;5126150;28;19927;-48
2022/05/22 10:33:21;;;;;;;;;;;22.00;44.20;;;;;;5120264;28;20007;-45
2022/05/22 10:35:49;;;;;;;;;;;22.20;43.80;;;;;;5126643;28;20439;-51
2022/05/22 10:38:19;;;;;;;;;;;22.30;43.40;;;;;;5124490;28;19923;-45
2022/05/22 10:43:34;;;;;;;;;;;22.20;42.90;;;;;;5111664;28;19931;-52
2022/05/22 10:46:01;;;;;;;;;;;20.30;46.80;;;;;;5107441;28;21286;-44
2022/05/22 10:48:28;;;;;;;;;;;19.80;48.60;;;;;;5122740;28;19931;-44
2022/05/22 10:51:02;;;;;;;;;;;21.00;46.50;;;;;;5125348;28;19924;-45
2022/05/22 10:53:28;;;;;;;;;;;21.50;45.20;;;;;;5103531;28;19928;-44
2022/05/22 10:55:58;;;;;;;;;;;21.90;44.40;;;;;;5122150;28;19930;-44
2022/05/22 10:58:25;;;;;;;;;;;21.90;44.20;;;;;;5127769;28;19946;-44
2022/05/22 11:00:52;;;;;;;;;;;22.10;43.90;;;;;;5122303;28;19927;-43
2022/05/22 11:03:18;;;;;;;;;;;22.10;43.80;;;;;;5102901;28;20092;-44
2022/05/22 11:05:51;;;;;;;;;;;22.20;43.70;;;;;;5107666;28;19932;-46
2022/05/22 11:08:29;;;;;;;;;;;22.30;43.50;;;;;;5121908;28;19956;-47
2022/05/22 11:10:55;;;;;;;;;;;20.70;46.60;;;;;;5121236;28;20034;-45
2022/05/22 11:13:23;;;;;;;;;;;20.00;48.20;;;;;;5126892;28;19938;-45
2022/05/22 11:15:49;;;;;;;;;;;21.10;46.00;;;;;;5123636;28;19927;-45
2022/05/22 11:18:19;;;;;;;;;;;21.70;44.50;;;;;;5128107;28;19927;-44
2022/05/22 11:20:50;;;;;;;;;;;21.90;44.10;;;;;;5124830;28;19927;-43
2022/05/22 11:23:36;;;;;;;;;;;22.00;43.80;;;;;;5124581;28;19944;-44
2022/05/22 11:26:10;;;;;;;;;;;22.10;43.60;;;;;;5127053;28;19967;-44
2022/05/22 11:28:41;;;;;;;;;;;22.20;43.40;;;;;;5125578;28;19989;-44
2022/05/22 11:31:26;;;;;;;;;;;22.20;43.50;;;;;;5106854;28;20017;-46
2022/05/22 11:34:10;;;;;;;;;;;22.30;43.30;;;;;;5126778;28;19931;-55
2022/05/22 11:36:46;;;;;;;;;;;22.30;42.80;;;;;;5127409;28;19923;-49
2022/05/22 11:39:16;;;;;;;;;;;20.40;46.20;;;;;;5104627;28;20370;-50
2022/05/22 11:41:50;;;;;;;;;;;19.80;47.70;;;;;;5105619;28;19927;-52
2022/05/22 11:44:31;;;;;;;;;;;20.60;46.60;;;;;;5108565;28;19997;-50
2022/05/22 11:47:15;;;;;;;;;;;21.40;44.70;;;;;;5119499;28;20379;-46
2022/05/22 11:50:07;;;;;;;;;;;21.80;43.90;;;;;;5120786;28;20306;-48
2022/05/22 11:52:54;;;;;;;;;;;22.00;43.50;;;;;;5121904;28;20419;-49
2022/05/22 11:55:39;;;;;;;;;;;22.10;43.20;;;;;;5121311;28;20017;-47
2022/05/22 11:58:21;;;;;;;;;;;22.20;43.10;;;;;;5121477;28;20850;-49
2022/05/22 12:01:06;;;;;;;;;;;22.30;42.90;;;;;;5106884;28;20371;-48
2022/05/22 12:03:46;;;;;;;;;;;22.30;42.70;;;;;;5124975;28;19972;-47
2022/05/22 12:06:15;;;;;;;;;;;21.40;44.00;;;;;;5120618;28;20060;-47
2022/05/22 12:08:47;;;;;;;;;;;20.00;47.30;;;;;;5125969;28;19942;-53
2022/05/22 12:11:15;;;;;;;;;;;20.10;47.90;;;;;;5106123;28;19927;-45
2022/05/22 12:13:46;;;;;;;;;;;21.30;45.50;;;;;;5123033;28;20339;-46
2022/05/22 12:16:32;;;;;;;;;;;21.80;44.40;;;;;;5108397;28;19924;-44
2022/05/22 12:19:05;;;;;;;;;;;22.00;43.60;;;;;;5125217;28;19931;-44
2022/05/22 12:21:34;;;;;;;;;;;22.10;43.30;;;;;;5104192;28;20150;-45
2022/05/22 12:24:05;;;;;;;;;;;22.20;43.30;;;;;;5125762;28;20010;-48
2022/05/22 12:26:31;;;;;;;;;;;22.00;43.40;;;;;;5104082;28;20018;-45
2022/05/22 12:29:01;;;;;;;;;;;21.80;42.80;;;;;;5103120;28;20019;-46
2022/05/22 12:31:32;;;;;;;;;;;21.50;42.30;;;;;;5126524;28;19953;-45
2022/05/22 12:33:59;;;;;;;;;;;21.80;43.80;;;;;;5104204;28;20460;-44
2022/05/22 12:36:25;;;;;;;;;;;22.00;44.30;;;;;;5121488;28;20038;-46
2022/05/22 12:38:53;;;;;;;;;;;22.20;43.60;;;;;;5108081;28;20413;-47
2022/05/22 12:41:25;;;;;;;;;;;20.70;46.30;;;;;;5120621;28;19924;-46
2022/05/22 12:43:51;;;;;;;;;;;20.00;48.20;;;;;;5084679;28;20312;-46
2022/05/22 12:46:18;;;;;;;;;;;21.00;46.40;;;;;;5107330;28;20283;-46
2022/05/22 12:48:44;;;;;;;;;;;21.70;44.80;;;;;;5120729;28;19971;-44
2022/05/22 12:51:09;;;;;;;;;;;21.90;44.10;;;;;;5126179;28;20045;-43
2022/05/22 12:53:36;;;;;;;;;;;22.10;43.60;;;;;;5120726;28;19934;-46
2022/05/22 12:56:22;;;;;;;;;;;22.20;43.40;;;;;;5120357;28;19932;-47
2022/05/22 12:58:52;;;;;;;;;;;22.30;43.10;;;;;;5124528;28;20023;-49
2022/05/22 13:01:24;;;;;;;;;;;22.30;43.10;;;;;;5120747;28;19923;-48
2022/05/22 13:03:50;;;;;;;;;;;20.60;46.60;;;;;;5102986;28;20026;-47
2022/05/22 13:06:19;;;;;;;;;;;19.80;47.80;;;;;;5107722;28;19930;-47
2022/05/22 13:08:49;;;;;;;;;;;20.70;46.60;;;;;;5120270;28;20022;-46
2022/05/22 13:11:16;;;;;;;;;;;21.40;44.70;;;;;;5120413;28;19946;-45
2022/05/22 13:13:51;;;;;;;;;;;21.90;43.60;;;;;;5107561;28;19975;-44
2022/05/22 13:16:24;;;;;;;;;;;22.10;43.10;;;;;;5100520;28;20379;-45
2022/05/22 13:18:50;;;;;;;;;;;22.20;42.90;;;;;;5118066;28;19923;-47
2022/05/22 13:21:28;;;;;;;;;;;22.30;42.80;;;;;;5106430;28;20010;-45
2022/05/22 13:24:04;;;;;;;;;;;22.20;42.80;;;;;;5119969;28;19976;-46
2022/05/22 13:26:30;;;;;;;;;;;22.30;42.70;;;;;;5101727;28;19923;-44
2022/05/22 13:29:15;;;;;;;;;;;22.30;42.60;;;;;;5126638;27;19927;-45
2022/05/22 13:31:43;;;;;;;;;;;22.30;42.60;;;;;;5103738;28;19931;-47
2022/05/22 13:34:15;;;;;;;;;;;22.30;42.30;;;;;;5124471;28;20139;-50
2022/05/22 13:36:46;;;;;;;;;;;20.70;45.60;;;;;;5127063;28;20045;-50
2022/05/22 13:39:38;;;;;;;;;;;20.00;46.70;;;;;;5123795;28;19924;-47
2022/05/22 13:42:13;;;;;;;;;;;20.10;46.80;;;;;;5083914;28;20141;-47
2022/05/22 13:44:44;;;;;;;;;;;21.30;44.20;;;;;;5129014;28;19971;-50
2022/05/22 13:47:15;;;;;;;;;;;21.80;43.30;;;;;;5105346;28;20993;-47
2022/05/22 13:52:34;;;;;;;;;;;21.90;42.80;;;;;;5119504;28;20171;-47
2022/05/22 13:52:53;;;;;;;;;;;22.10;42.60;;;;;;5128390;28;20026;-48
2022/05/22 13:55:19;;;;;;;;;;;22.20;42.50;;;;;;5121186;28;19972;-48
2022/05/22 13:57:49;;;;;;;;;;;22.20;42.40;;;;;;5122425;28;20367;-49
2022/05/22 14:00:16;;;;;;;;;;;22.30;42.30;;;;;;5110280;28;20043;-47
2022/05/22 14:02:42;;;;;;;;;;;22.30;42.10;;;;;;5105905;28;19923;-47
2022/05/22 14:05:08;;;;;;;;;;;21.10;44.10;;;;;;5123728;28;20085;-50
2022/05/22 14:07:38;;;;;;;;;;;20.10;45.90;;;;;;5109088;28;19927;-46
2022/05/22 14:10:04;;;;;;;;;;;20.80;44.60;;;;;;5104804;28;19927;-53
2022/05/22 14:12:31;;;;;;;;;;;21.80;42.60;;;;;;5126445;28;19924;-50
2022/05/22 14:14:57;;;;;;;;;;;22.00;42.00;;;;;;5122084;28;20434;-47
2022/05/22 14:17:31;;;;;;;;;;;22.20;41.80;;;;;;5102946;28;19923;-52
2022/05/22 14:20:08;;;;;;;;;;;22.20;41.70;;;;;;5128397;28;20347;-53
2022/05/22 14:22:33;;;;;;;;;;;22.30;41.60;;;;;;5122737;28;20442;-51
2022/05/22 14:25:00;;;;;;;;;;;22.30;41.60;;;;;;5119754;28;20025;-54
2022/05/22 14:27:28;;;;;;;;;;;21.80;41.70;;;;;;5128361;28;19923;-51
2022/05/22 14:30:13;;;;;;;;;;;20.50;44.30;;;;;;5122009;28;19930;-50
2022/05/22 14:32:39;;;;;;;;;;;20.20;44.80;;;;;;5123155;28;20371;-47
2022/05/22 14:35:05;;;;;;;;;;;21.10;42.00;;;;;;5127461;28;19927;-45
2022/05/22 14:37:36;;;;;;;;;;;21.30;40.90;;;;;;5122459;28;20068;-44